Time;durP1;ratioP1;P1;durP2;ratioP2;P2;SDS_P1;SDS_P2;PMS_P1;PMS_P2;Temp;Humidity;BMP_temperature;BMP_pressure;BME280_temperature;BME280_humidity;BME280_pressure;Samples;Min_cycle;Max_cycle;Signal;HPM_P1;HPM_P2
2023/11/17 10:00:21;;;;;;;14.20;4.10;;;10.70;99.90;;;;;;3019141;23;20701;-74
2023/11/17 10:02:54;;;;;;;8.37;4.53;;;10.80;99.90;;;;;;4882816;29;20226;-74
2023/11/17 10:05:23;;;;;;;9.87;4.03;;;10.70;99.90;;;;;;4883766;29;20213;-76
2023/11/17 10:07:52;;;;;;;10.90;4.23;;;10.60;99.90;;;;;;4885782;29;20306;-74
2023/11/17 10:10:21;;;;;;;9.93;3.97;;;10.70;99.90;;;;;;4898612;29;20214;-72
2023/11/17 10:12:49;;;;;;;11.00;3.83;;;10.90;99.90;;;;;;4898113;29;20213;-72
2023/11/17 10:15:24;;;;;;;14.97;4.87;;;11.10;99.90;;;;;;4898595;29;20316;-72
2023/11/17 10:17:55;;;;;;;11.50;4.83;;;11.10;99.90;;;;;;4891921;29;20258;-73
2023/11/17 10:20:24;;;;;;;9.00;4.37;;;11.10;99.90;;;;;;4886585;29;20364;-78
2023/11/17 10:22:52;;;;;;;7.40;4.03;;;11.10;99.90;;;;;;4883415;29;20528;-77
2023/11/17 10:25:21;;;;;;;9.57;4.10;;;11.20;99.90;;;;;;4878759;29;20223;-76
2023/11/17 10:27:50;;;;;;;10.33;3.63;;;11.20;99.90;;;;;;4878972;29;20234;-76
2023/11/17 10:30:19;;;;;;;11.60;3.60;;;11.20;99.90;;;;;;4879108;29;20215;-75
2023/11/17 10:32:59;;;;;;;9.27;3.83;;;11.30;99.90;;;;;;4878114;29;20298;-79
2023/11/17 10:35:26;;;;;;;7.63;3.23;;;11.40;99.90;;;;;;4878545;29;20281;-77
2023/11/17 10:37:54;;;;;;;9.27;3.43;;;11.50;99.90;;;;;;4887855;29;20278;-77
2023/11/17 10:40:27;;;;;;;7.30;3.10;;;11.30;99.90;;;;;;4883291;29;20301;-80
2023/11/17 10:43:07;;;;;;;10.03;2.73;;;11.20;99.90;;;;;;4877890;29;20226;-78
2023/11/17 10:45:36;;;;;;;6.73;2.77;;;11.20;99.90;;;;;;4877933;29;20215;-80
2023/11/17 10:48:06;;;;;;;7.27;2.83;;;11.20;99.90;;;;;;4877640;29;20260;-80
2023/11/17 10:50:35;;;;;;;7.57;3.00;;;11.20;99.90;;;;;;4878032;29;20246;-76
2023/11/17 10:53:14;;;;;;;9.00;2.90;;;11.10;99.90;;;;;;4877582;29;20211;-75
2023/11/17 10:55:42;;;;;;;7.73;3.40;;;10.90;99.90;;;;;;4878333;29;20238;-84
2023/11/17 10:58:15;;;;;;;6.20;2.77;;;10.90;99.90;;;;;;4876815;29;20231;-75
2023/11/17 11:00:48;;;;;;;7.13;2.90;;;10.80;99.90;;;;;;4877583;29;20218;-77
2023/11/17 11:03:18;;;;;;;6.17;2.80;;;10.80;99.90;;;;;;4877983;29;20612;-75
2023/11/17 11:05:47;;;;;;;7.43;2.87;;;10.80;99.90;;;;;;4886743;29;20278;-79
2023/11/17 11:08:18;;;;;;;7.87;2.73;;;10.90;99.90;;;;;;4890502;29;20275;-78
2023/11/17 11:10:53;;;;;;;9.60;3.17;;;10.90;99.90;;;;;;4877045;29;20294;-79
2023/11/17 11:13:27;;;;;;;5.47;3.23;;;11.00;99.90;;;;;;4877289;29;20717;-83
2023/11/17 11:16:07;;;;;;;7.73;3.10;;;10.90;99.90;;;;;;4878766;29;20238;-74
2023/11/17 11:18:44;;;;;;;6.47;2.67;;;10.90;99.90;;;;;;4876536;29;20235;-76
2023/11/17 11:21:16;;;;;;;4.20;2.17;;;10.90;99.90;;;;;;4877135;29;20227;-77
2023/11/17 11:23:45;;;;;;;6.73;2.50;;;10.90;99.90;;;;;;4876843;29;20215;-77
2023/11/17 11:26:13;;;;;;;5.53;2.17;;;10.90;99.90;;;;;;4894575;29;20297;-77
2023/11/17 11:28:41;;;;;;;6.70;2.10;;;10.90;99.90;;;;;;4886445;29;20323;-76
2023/11/17 11:31:11;;;;;;;10.10;3.93;;;10.80;99.90;;;;;;4876414;29;20705;-76
2023/11/17 11:33:38;;;;;;;5.67;2.50;;;11.00;99.90;;;;;;4877589;29;20225;-76
2023/11/17 11:36:06;;;;;;;5.83;2.40;;;11.00;99.90;;;;;;4877675;29;20321;-76
2023/11/17 11:38:34;;;;;;;5.73;2.63;;;11.10;99.90;;;;;;4877368;29;20291;-77
2023/11/17 11:41:01;;;;;;;7.63;2.50;;;11.20;99.90;;;;;;4877338;29;20223;-76
2023/11/17 11:43:30;;;;;;;5.07;2.43;;;11.30;99.90;;;;;;4883180;29;20570;-78
2023/11/17 11:45:58;;;;;;;4.73;2.07;;;11.30;99.90;;;;;;4895858;29;20555;-81
2023/11/17 11:48:30;;;;;;;8.47;2.33;;;11.50;99.90;;;;;;4888734;29;20274;-78
2023/11/17 11:50:57;;;;;;;4.83;2.17;;;11.60;99.90;;;;;;4877197;29;20239;-79
2023/11/17 11:53:35;;;;;;;5.57;2.13;;;11.90;99.90;;;;;;4877799;29;20279;-78
2023/11/17 11:56:03;;;;;;;5.87;2.40;;;12.20;99.90;;;;;;4878994;29;20273;-81
2023/11/17 11:58:30;;;;;;;5.40;2.23;;;12.30;99.90;;;;;;4877293;29;20313;-82
2023/11/17 12:00:59;;;;;;;4.83;1.90;;;12.50;99.90;;;;;;4876724;29;20215;-80
2023/11/17 12:03:37;;;;;;;5.20;2.20;;;12.40;99.90;;;;;;4877456;29;20272;-83
2023/11/17 12:06:05;;;;;;;4.67;2.23;;;12.40;99.90;;;;;;4877404;29;20211;-79
2023/11/17 12:08:32;;;;;;;8.50;2.67;;;12.40;99.90;;;;;;4877588;29;20235;-76
2023/11/17 12:11:10;;;;;;;4.67;2.20;;;12.40;99.90;;;;;;4882226;29;20211;-78
2023/11/17 12:13:48;;;;;;;5.63;2.27;;;12.40;99.90;;;;;;4882187;29;20214;-76
2023/11/17 12:16:20;;;;;;;4.87;2.50;;;12.40;99.90;;;;;;4891505;29;20237;-76
2023/11/17 12:18:52;;;;;;;5.07;2.20;;;12.40;99.90;;;;;;4890386;29;20746;-76
2023/11/17 12:21:21;;;;;;;4.27;2.00;;;12.50;99.90;;;;;;4882375;29;20258;-75
2023/11/17 12:23:50;;;;;;;7.73;4.23;;;12.40;99.90;;;;;;4882085;29;20211;-76
2023/11/17 12:26:21;;;;;;;5.50;2.60;;;12.40;99.90;;;;;;4891430;29;20286;-76
2023/11/17 12:28:48;;;;;;;8.43;3.10;;;12.50;99.90;;;;;;4890511;29;20231;-76
2023/11/17 12:31:16;;;;;;;5.93;2.33;;;12.70;99.90;;;;;;4881940;29;20207;-76
2023/11/17 12:33:44;;;;;;;7.03;3.80;;;13.00;99.90;;;;;;4882033;29;20298;-77
2023/11/17 12:36:16;;;;;;;5.70;2.30;;;13.10;99.90;;;;;;4881609;29;20329;-76
2023/11/17 12:38:44;;;;;;;8.27;2.80;;;13.10;99.90;;;;;;4881732;29;20269;-79
2023/11/17 12:41:12;;;;;;;4.17;2.43;;;13.10;99.90;;;;;;4881607;29;20734;-78
2023/11/17 12:43:39;;;;;;;5.50;2.20;;;13.00;99.90;;;;;;4881801;29;20294;-78
2023/11/17 12:46:08;;;;;;;7.27;2.27;;;12.80;99.90;;;;;;4892377;29;20213;-78
2023/11/17 12:48:38;;;;;;;5.33;2.67;;;12.90;99.90;;;;;;4891664;29;20250;-77
2023/11/17 12:51:05;;;;;;;5.30;3.30;;;13.10;99.90;;;;;;4881561;29;20230;-77
2023/11/17 12:53:42;;;;;;;13.47;6.37;;;13.00;99.90;;;;;;4881171;29;20757;-76
2023/11/17 12:56:09;;;;;;;6.53;1.80;;;13.00;99.90;;;;;;4881350;29;20246;-76
2023/11/17 12:58:38;;;;;;;4.33;1.97;;;13.10;99.90;;;;;;4881080;29;20231;-76
2023/11/17 13:01:10;;;;;;;3.53;2.20;;;12.60;99.90;;;;;;4881013;29;20552;-76
2023/11/17 13:03:38;;;;;;;3.77;1.70;;;12.30;99.90;;;;;;4881154;29;20222;-78
2023/11/17 13:06:06;;;;;;;6.23;1.80;;;12.10;99.90;;;;;;4886946;29;20622;-77
2023/11/17 13:08:34;;;;;;;8.17;2.20;;;12.00;99.90;;;;;;4899857;29;20235;-76
2023/11/17 13:11:04;;;;;;;5.17;2.70;;;12.10;99.90;;;;;;4899831;29;20261;-76
2023/11/17 13:13:31;;;;;;;5.63;2.27;;;12.00;99.90;;;;;;4900209;29;20211;-76
2023/11/17 13:15:59;;;;;;;4.37;1.77;;;12.10;99.90;;;;;;4899795;29;20234;-76
2023/11/17 13:18:26;;;;;;;4.07;1.60;;;12.10;99.90;;;;;;4894568;29;20256;-79
2023/11/17 13:20:54;;;;;;;6.27;2.03;;;12.30;99.90;;;;;;4898567;29;20631;-76
2023/11/17 13:23:21;;;;;;;3.07;1.70;;;12.20;99.90;;;;;;4890589;29;20210;-76
2023/11/17 13:26:00;;;;;;;3.57;1.60;;;12.20;99.90;;;;;;4900026;29;20210;-75
2023/11/17 13:28:29;;;;;;;2.73;1.30;;;12.20;99.90;;;;;;4883369;29;20317;-75
2023/11/17 13:30:56;;;;;;;3.20;1.90;;;12.20;99.90;;;;;;4881408;29;20211;-80
2023/11/17 13:33:39;;;;;;;6.50;1.60;;;12.20;99.90;;;;;;4877668;29;20226;-79
2023/11/17 13:36:08;;;;;;;2.20;1.43;;;12.30;99.90;;;;;;4888684;29;20325;-74
2023/11/17 13:39:00;;;;;;;5.73;1.77;;;12.10;99.90;;;;;;4881254;29;20260;-77
2023/11/17 13:41:32;;;;;;;6.37;2.00;;;11.90;99.90;;;;;;4879428;29;20215;-75
2023/11/17 13:44:03;;;;;;;4.77;1.73;;;11.90;99.90;;;;;;4879101;29;20310;-76
2023/11/17 13:46:32;;;;;;;2.47;1.47;;;11.90;99.90;;;;;;4878872;29;20207;-77
2023/11/17 13:49:04;;;;;;;6.38;3.00;;;11.90;99.90;;;;;;4878072;29;20536;-74
2023/11/17 13:51:36;;;;;;;5.53;2.87;;;12.00;99.90;;;;;;4878944;29;20230;-79
2023/11/17 13:54:03;;;;;;;4.47;2.50;;;12.10;99.90;;;;;;4878557;29;20646;-75
2023/11/17 13:56:31;;;;;;;6.10;2.10;;;12.20;99.90;;;;;;4878844;29;20254;-75
2023/11/17 13:58:57;;;;;;;4.90;1.97;;;12.30;99.90;;;;;;4878840;29;20261;-77
2023/11/17 14:01:26;;;;;;;3.10;1.70;;;12.30;99.90;;;;;;4878813;29;20227;-75
2023/11/17 14:03:56;;;;;;;6.60;1.73;;;12.10;99.90;;;;;;4878449;29;20329;-75
2023/11/17 14:06:23;;;;;;;6.87;1.87;;;12.10;99.90;;;;;;4879033;29;20276;-74
2023/11/17 14:08:50;;;;;;;3.93;1.70;;;12.20;99.90;;;;;;4878675;29;20242;-76
2023/11/17 14:11:17;;;;;;;7.07;2.23;;;12.10;99.90;;;;;;4878830;29;20221;-74
2023/11/17 14:13:44;;;;;;;4.07;1.93;;;12.00;99.90;;;;;;4881131;29;20211;-75
2023/11/17 14:16:11;;;;;;;3.83;2.10;;;11.90;99.90;;;;;;4878153;29;20246;-77
2023/11/17 14:18:41;;;;;;;3.47;2.10;;;12.00;99.90;;;;;;4877889;29;20667;-77
2023/11/17 14:21:09;;;;;;;4.87;1.87;;;11.90;99.90;;;;;;4878663;29;20215;-76
2023/11/17 14:23:37;;;;;;;2.63;1.40;;;11.90;99.90;;;;;;4878672;29;20249;-76
2023/11/17 14:26:08;;;;;;;3.43;1.63;;;11.80;99.90;;;;;;4878470;29;20213;-76
2023/11/17 14:28:36;;;;;;;2.93;1.80;;;11.80;99.90;;;;;;4878210;29;20283;-75
2023/11/17 14:31:07;;;;;;;4.30;1.77;;;11.80;99.90;;;;;;4877816;29;20319;-75
2023/11/17 14:33:34;;;;;;;3.07;1.70;;;11.90;99.90;;;;;;4878151;29;20238;-76
2023/11/17 14:36:04;;;;;;;2.63;1.67;;;11.60;99.90;;;;;;4877696;29;20215;-76
2023/11/17 14:38:31;;;;;;;4.67;2.00;;;11.50;99.90;;;;;;4877787;29;20239;-75
2023/11/17 14:40:59;;;;;;;4.93;1.67;;;11.40;99.90;;;;;;4878288;29;20211;-74
2023/11/17 14:43:26;;;;;;;5.50;2.03;;;11.30;99.90;;;;;;4877645;29;20211;-73
2023/11/17 14:45:53;;;;;;;4.57;1.90;;;11.20;99.90;;;;;;4878363;29;20234;-75
2023/11/17 14:48:20;;;;;;;3.93;1.93;;;11.10;99.90;;;;;;4888621;29;20294;-75
2023/11/17 14:50:47;;;;;;;2.87;1.60;;;11.00;99.90;;;;;;4896299;29;20266;-76
2023/11/17 14:53:15;;;;;;;2.73;1.40;;;11.00;99.90;;;;;;4885949;29;20223;-76
2023/11/17 14:55:42;;;;;;;5.63;1.50;;;11.00;99.90;;;;;;4877716;29;20659;-75
2023/11/17 14:58:10;;;;;;;2.53;1.57;;;11.00;99.90;;;;;;4877325;29;20280;-74
2023/11/17 15:00:41;;;;;;;3.93;1.23;;;11.10;99.90;;;;;;4877622;29;20215;-75
2023/11/17 15:03:09;;;;;;;3.63;1.60;;;11.10;99.90;;;;;;4877827;29;20719;-75
2023/11/17 15:05:38;;;;;;;2.10;1.30;;;11.10;99.90;;;;;;4877671;29;20667;-77
2023/11/17 15:08:06;;;;;;;3.83;1.37;;;11.00;99.90;;;;;;4884599;29;20713;-74
2023/11/17 15:10:37;;;;;;;3.23;1.53;;;11.00;99.90;;;;;;4895926;29;20301;-76
2023/11/17 15:13:04;;;;;;;2.20;1.57;;;10.90;99.90;;;;;;4887094;29;20215;-76
2023/11/17 15:15:31;;;;;;;4.07;1.23;;;10.80;99.90;;;;;;4877806;29;20239;-77
2023/11/17 15:18:01;;;;;;;2.90;1.30;;;10.80;99.90;;;;;;4877527;29;20659;-76
2023/11/17 15:20:34;;;;;;;4.10;2.03;;;10.70;99.90;;;;;;4877457;29;20207;-75
2023/11/17 15:23:01;;;;;;;3.80;1.70;;;10.70;99.90;;;;;;4877023;29;20203;-76
2023/11/17 15:25:35;;;;;;;2.47;1.77;;;10.70;99.90;;;;;;4889517;29;20301;-73
2023/11/17 15:28:10;;;;;;;3.87;2.13;;;10.70;99.90;;;;;;4896992;29;20795;-74
2023/11/17 15:30:38;;;;;;;8.20;1.90;;;10.70;99.90;;;;;;4897473;29;20576;-74
2023/11/17 15:33:08;;;;;;;2.73;1.70;;;10.70;99.90;;;;;;4897174;29;20749;-73
2023/11/17 15:35:36;;;;;;;2.33;1.30;;;10.60;99.90;;;;;;4897386;29;20249;-73
2023/11/17 15:38:05;;;;;;;2.30;1.60;;;10.40;99.90;;;;;;4884881;29;20238;-73
2023/11/17 15:40:33;;;;;;;3.10;1.80;;;10.30;99.90;;;;;;4879076;29;20215;-74
2023/11/17 15:43:00;;;;;;;2.97;1.87;;;10.20;99.90;;;;;;4878965;29;20207;-73
2023/11/17 15:45:28;;;;;;;6.93;1.43;;;10.20;99.90;;;;;;4881491;29;20769;-76
2023/11/17 15:47:55;;;;;;;4.63;1.40;;;10.20;99.90;;;;;;4882182;29;20590;-73
2023/11/17 15:50:21;;;;;;;4.00;1.80;;;10.20;99.90;;;;;;4882593;29;20211;-75
2023/11/17 15:52:48;;;;;;;2.97;1.50;;;10.20;99.90;;;;;;4882200;29;20726;-76
2023/11/17 15:55:16;;;;;;;5.17;1.70;;;10.10;99.90;;;;;;4882220;29;20740;-73
2023/11/17 15:57:43;;;;;;;3.53;2.30;;;10.10;99.90;;;;;;4882528;29;20334;-74
2023/11/17 16:00:13;;;;;;;2.63;1.43;;;10.10;99.90;;;;;;4882497;29;20211;-74
2023/11/17 16:02:45;;;;;;;3.87;1.83;;;10.00;99.90;;;;;;4881659;29;20215;-75
2023/11/17 16:05:14;;;;;;;2.60;1.53;;;9.90;99.90;;;;;;4881895;29;20301;-77
2023/11/17 16:07:43;;;;;;;3.40;2.00;;;9.80;99.90;;;;;;4881406;29;20594;-77
2023/11/17 16:10:14;;;;;;;2.73;1.87;;;9.70;99.90;;;;;;4881774;29;20211;-76
2023/11/17 16:12:42;;;;;;;3.50;2.23;;;9.60;99.90;;;;;;4890743;29;20210;-76
2023/11/17 16:15:12;;;;;;;3.53;1.93;;;9.60;99.90;;;;;;4881663;29;20220;-74
2023/11/17 16:17:39;;;;;;;3.93;1.83;;;9.50;99.90;;;;;;4881295;29;20250;-75
2023/11/17 16:20:13;;;;;;;5.57;2.37;;;9.40;99.90;;;;;;4882093;29;20268;-74
2023/11/17 16:22:42;;;;;;;3.20;2.13;;;9.30;99.90;;;;;;4881408;29;20675;-73
2023/11/17 16:25:10;;;;;;;4.93;2.30;;;9.20;99.90;;;;;;4882065;29;20294;-73
2023/11/17 16:27:39;;;;;;;2.93;2.07;;;9.10;99.90;;;;;;4881942;29;20231;-72
2023/11/17 16:30:13;;;;;;;4.80;2.13;;;9.00;99.90;;;;;;4881972;29;20211;-72
2023/11/17 16:32:41;;;;;;;2.43;1.60;;;8.90;99.90;;;;;;4881737;29;20666;-72
2023/11/17 16:35:13;;;;;;;2.40;1.67;;;8.90;99.90;;;;;;4881899;29;20570;-73
2023/11/17 16:37:46;;;;;;;3.37;2.03;;;8.80;99.90;;;;;;4876585;29;20239;-76
2023/11/17 16:40:21;;;;;;;2.50;1.87;;;8.70;99.90;;;;;;4880139;29;20215;-75
2023/11/17 16:42:59;;;;;;;5.67;2.23;;;8.60;99.90;;;;;;4880588;29;20211;-76
2023/11/17 16:45:26;;;;;;;6.60;2.43;;;8.50;99.90;;;;;;4898780;29;20224;-75
2023/11/17 16:47:54;;;;;;;4.33;2.20;;;8.50;99.90;;;;;;4886809;29;20946;-73
2023/11/17 16:50:23;;;;;;;6.17;2.90;;;8.40;99.90;;;;;;4879891;29;20249;-73
2023/11/17 16:52:51;;;;;;;5.37;3.13;;;8.40;99.90;;;;;;4879738;29;20239;-74
2023/11/17 16:55:19;;;;;;;3.87;2.60;;;8.30;99.90;;;;;;4879261;29;20303;-74
2023/11/17 16:57:46;;;;;;;6.03;3.03;;;8.30;99.90;;;;;;4878637;29;20246;-74
2023/11/17 17:00:16;;;;;;;5.00;2.60;;;8.30;99.90;;;;;;4898269;29;20219;-73
2023/11/17 17:02:44;;;;;;;5.90;2.60;;;8.30;99.90;;;;;;4898408;29;20222;-73
2023/11/17 17:05:14;;;;;;;7.07;2.40;;;8.30;99.90;;;;;;4880308;29;20218;-74
2023/11/17 17:07:44;;;;;;;3.53;2.10;;;8.20;99.90;;;;;;4879135;29;20238;-73
2023/11/17 17:10:11;;;;;;;4.63;2.33;;;8.20;99.90;;;;;;4880099;29;20215;-75
2023/11/17 17:12:39;;;;;;;5.97;2.80;;;8.10;99.90;;;;;;4890532;29;20217;-76
2023/11/17 17:15:13;;;;;;;4.40;2.50;;;8.10;99.90;;;;;;4881101;29;20207;-73
2023/11/17 17:17:46;;;;;;;3.93;2.70;;;8.20;99.90;;;;;;4879015;29;20575;-78
2023/11/17 17:20:14;;;;;;;4.93;2.20;;;8.20;99.90;;;;;;4879427;29;20207;-76
2023/11/17 17:22:47;;;;;;;4.23;2.70;;;8.20;99.90;;;;;;4879820;29;20215;-73
2023/11/17 17:25:15;;;;;;;4.97;2.50;;;8.20;99.90;;;;;;4879551;29;20286;-74
2023/11/17 17:27:44;;;;;;;6.17;2.60;;;8.30;99.90;;;;;;4879682;29;20274;-73
2023/11/17 17:30:12;;;;;;;10.03;3.43;;;8.30;99.90;;;;;;4879038;29;20470;-74
2023/11/17 17:32:41;;;;;;;7.13;3.77;;;8.20;99.90;;;;;;4879417;29;20211;-74
2023/11/17 17:35:10;;;;;;;6.07;3.40;;;8.20;99.90;;;;;;4878913;29;20692;-74
2023/11/17 17:37:37;;;;;;;5.87;3.03;;;8.10;99.90;;;;;;4878965;29;20254;-75
2023/11/17 17:40:11;;;;;;;6.70;3.70;;;8.10;99.90;;;;;;4879907;29;20300;-77
2023/11/17 17:42:40;;;;;;;6.77;3.43;;;8.10;99.90;;;;;;4879457;29;20215;-74
2023/11/17 17:45:09;;;;;;;9.13;4.10;;;8.00;99.90;;;;;;4879121;29;20211;-74
2023/11/17 17:47:37;;;;;;;7.23;3.43;;;8.00;99.90;;;;;;4878534;29;20235;-75
2023/11/17 17:50:05;;;;;;;8.37;3.83;;;8.00;99.90;;;;;;4878641;29;20207;-75
2023/11/17 17:52:33;;;;;;;8.70;4.17;;;8.00;99.90;;;;;;4878530;29;20244;-74
2023/11/17 17:55:00;;;;;;;8.23;3.73;;;8.10;99.90;;;;;;4878371;29;20235;-75
2023/11/17 17:57:29;;;;;;;7.20;3.50;;;8.10;99.90;;;;;;4878501;29;20243;-74
2023/11/17 17:59:56;;;;;;;6.70;3.87;;;8.10;99.90;;;;;;4879176;29;20294;-75
2023/11/17 18:02:23;;;;;;;15.73;4.60;;;8.00;99.90;;;;;;4878431;29;20215;-74
2023/11/17 18:04:50;;;;;;;5.67;3.43;;;8.00;99.90;;;;;;4878542;29;20555;-75
2023/11/17 18:07:19;;;;;;;9.23;4.30;;;8.00;99.90;;;;;;4885500;29;20234;-75
2023/11/17 18:09:45;;;;;;;7.40;3.90;;;7.90;99.90;;;;;;4889482;29;20589;-73
2023/11/17 18:12:13;;;;;;;9.20;3.97;;;7.90;99.90;;;;;;4879713;29;20311;-75
2023/11/17 18:14:41;;;;;;;13.97;5.07;;;7.90;99.90;;;;;;4880326;29;20314;-73
2023/11/17 18:17:11;;;;;;;7.13;3.80;;;7.80;99.90;;;;;;4891282;29;20318;-73
2023/11/17 18:19:38;;;;;;;9.37;3.77;;;7.80;99.90;;;;;;4892113;29;20211;-74
2023/11/17 18:22:05;;;;;;;10.50;4.50;;;7.80;99.90;;;;;;4887017;29;20562;-73
2023/11/17 18:24:32;;;;;;;11.13;4.43;;;7.70;99.90;;;;;;4884595;29;20591;-72
2023/11/17 18:26:59;;;;;;;11.93;4.47;;;7.70;99.90;;;;;;4891927;29;20207;-73
2023/11/17 18:29:26;;;;;;;8.60;4.53;;;7.60;99.90;;;;;;4879634;29;20207;-73
2023/11/17 18:31:54;;;;;;;8.47;4.23;;;7.50;99.90;;;;;;4883882;29;20233;-74
2023/11/17 18:34:21;;;;;;;11.20;4.83;;;7.60;99.90;;;;;;4887278;29;20215;-75
2023/11/17 18:36:50;;;;;;;10.70;4.53;;;7.60;99.90;;;;;;4879202;29;20294;-74
2023/11/17 18:39:19;;;;;;;10.07;4.87;;;7.60;99.90;;;;;;4890242;29;20334;-74
2023/11/17 18:41:46;;;;;;;9.10;4.77;;;7.50;99.90;;;;;;4896031;29;20218;-73
2023/11/17 18:44:13;;;;;;;11.87;5.97;;;7.40;99.90;;;;;;4879596;29;20277;-75
